createdAt,value
2018-09-21T09:40:08.450Z,28.47
2018-09-21T09:41:08.363Z,28.59
2018-09-21T09:42:08.277Z,28.79
2018-09-21T09:43:08.278Z,28.75
2018-09-21T09:44:08.091Z,28.82
2018-09-21T09:45:07.992Z,28.86
2018-09-21T09:46:07.903Z,28.94
2018-09-21T09:47:07.817Z,29.01
2018-09-21T09:48:07.720Z,29.13
2018-09-21T09:49:07.675Z,29.12
2018-09-21T09:50:07.544Z,29.23
2018-09-21T09:51:07.444Z,29.23
2018-09-21T09:52:07.356Z,29.31
2018-09-21T09:53:07.259Z,29.22
2018-09-21T09:54:07.171Z,29.41
2018-09-21T09:55:07.084Z,29.23
2018-09-21T09:56:06.986Z,29.27
2018-09-21T09:57:06.897Z,29.20
2018-09-21T09:58:06.810Z,29.23
2018-09-21T09:59:06.711Z,29.45
2018-09-21T10:00:06.625Z,29.53
2018-09-21T10:01:06.536Z,29.59
2018-09-21T10:02:06.450Z,29.63
2018-09-21T10:03:06.352Z,29.59
2018-09-21T10:04:06.263Z,29.78
2018-09-21T10:05:06.177Z,29.82
2018-09-21T10:06:06.078Z,29.76
2018-09-21T10:07:05.994Z,29.86
2018-09-21T10:08:05.904Z,29.82
2018-09-21T10:09:05.804Z,29.66
2018-09-21T10:10:05.716Z,29.69
2018-09-21T10:11:05.631Z,29.88
2018-09-21T10:12:05.531Z,29.87
2018-09-21T10:13:05.445Z,29.91
2018-09-21T10:14:05.359Z,30.02
2018-09-21T10:15:05.269Z,30.10
2018-09-21T10:16:05.169Z,30.10
2018-09-21T10:17:05.085Z,30.09
2018-09-21T10:18:04.996Z,30.19
2018-09-21T10:19:04.899Z,30.28
2018-09-21T10:20:04.810Z,30.25
2018-09-21T10:21:04.724Z,30.32
2018-09-21T10:22:04.637Z,30.55
2018-09-21T10:23:04.537Z,30.48
2018-09-21T10:24:04.460Z,30.35
2018-09-21T10:25:04.364Z,30.30
2018-09-21T10:26:04.276Z,30.47
2018-09-21T10:27:04.248Z,30.47
2018-09-21T10:28:04.233Z,30.54
2018-09-21T10:29:04.012Z,30.54
2018-09-21T10:30:03.918Z,30.44
2018-09-21T10:31:03.818Z,30.44
2018-09-21T10:32:03.729Z,30.46
2018-09-21T10:33:03.643Z,30.47
2018-09-21T10:34:03.555Z,30.34
2018-09-21T10:35:03.469Z,30.43
2018-09-21T10:36:03.370Z,30.57
2018-09-21T10:37:03.348Z,30.59
2018-09-21T10:38:03.196Z,30.62
2018-09-21T10:39:03.147Z,30.80
2018-09-21T10:40:03.052Z,30.68
2018-09-21T10:41:02.923Z,30.78
2018-09-21T10:42:02.848Z,30.84
2018-09-21T10:43:02.774Z,30.78
2018-09-21T10:44:02.660Z,30.80
2018-09-21T10:45:02.570Z,30.91
2018-09-21T10:46:02.475Z,30.99
2018-09-21T10:47:02.388Z,30.94
2018-09-21T10:48:02.303Z,30.97
2018-09-21T10:49:02.215Z,31.10
2018-09-21T10:50:02.117Z,31.14
2018-09-21T10:51:02.031Z,31.06
2018-09-21T10:52:01.940Z,31.18
2018-09-21T10:53:01.855Z,31.44
2018-09-21T10:54:01.766Z,31.43
2018-09-21T10:55:01.668Z,31.61
2018-09-21T10:56:01.580Z,31.49
2018-09-21T10:57:01.493Z,31.33
2018-09-21T10:58:01.412Z,31.29
2018-09-21T10:59:01.318Z,31.25
2018-09-21T11:00:01.233Z,31.00
2018-09-21T11:01:01.151Z,30.91
2018-09-21T11:02:01.049Z,30.97
2018-09-21T11:03:00.960Z,30.94
2018-09-21T11:04:00.908Z,30.99
2018-09-21T11:05:00.786Z,31.06
2018-09-21T11:06:00.697Z,30.99
2018-09-21T11:07:00.599Z,31.02
2018-09-21T11:08:00.512Z,31.09
2018-09-21T11:09:00.424Z,31.09
2018-09-21T11:10:00.338Z,31.00
2018-09-21T11:11:00.251Z,30.99
2018-09-21T11:12:00.151Z,30.91
2018-09-21T11:13:00.122Z,31.06
2018-09-21T11:13:59.977Z,31.18
2018-09-21T11:14:59.892Z,31.28
2018-09-21T11:15:59.802Z,31.37
2018-09-21T11:16:59.704Z,31.33
2018-09-21T11:17:59.618Z,31.33
2018-09-21T11:18:59.533Z,31.40
2018-09-21T11:19:59.444Z,31.43
2018-09-21T11:20:59.355Z,31.51
2018-09-21T11:21:59.258Z,31.64
2018-09-21T11:22:59.170Z,31.59
2018-09-21T11:23:59.082Z,31.59
2018-09-21T11:24:58.997Z,31.61
2018-09-21T11:25:58.921Z,31.66
2018-09-21T11:26:58.824Z,31.62
2018-09-21T11:27:58.724Z,31.62
2018-09-21T11:28:58.636Z,31.59
2018-09-21T11:29:58.550Z,31.49
2018-09-21T11:30:58.461Z,31.36
2018-09-21T11:31:58.376Z,31.52
2018-09-21T11:32:58.312Z,31.58
2018-09-21T11:33:58.188Z,31.62
2018-09-21T11:34:58.102Z,31.56
2018-09-21T11:35:58.016Z,31.71
2018-09-21T11:36:57.932Z,31.97
2018-09-21T11:37:57.841Z,32.00
2018-09-21T11:38:57.742Z,32.26
2018-09-21T11:39:57.655Z,32.21
2018-09-21T11:40:57.631Z,32.15
2018-09-21T11:41:57.481Z,32.27
2018-09-21T11:42:57.395Z,32.45
2018-09-21T11:43:57.296Z,32.43
2018-09-21T11:44:57.208Z,32.31
2018-09-21T11:45:57.119Z,32.29
2018-09-21T11:46:57.101Z,32.43
2018-09-21T11:47:56.946Z,32.48
2018-09-21T11:48:56.861Z,32.43
2018-09-21T11:49:56.772Z,32.30
2018-09-21T11:50:56.674Z,32.18
2018-09-21T11:51:56.586Z,32.11
2018-09-21T11:52:56.501Z,32.15
2018-09-21T11:53:56.414Z,32.14
2018-09-21T11:54:56.325Z,32.11
2018-09-21T11:55:56.241Z,32.07
2018-09-21T11:56:56.152Z,32.01
2018-09-21T11:57:56.054Z,31.85
2018-09-21T11:58:55.966Z,31.99
2018-09-21T11:59:55.881Z,32.01
2018-09-21T12:00:55.796Z,32.21
2018-09-21T12:01:55.728Z,32.15
2018-09-21T12:02:55.618Z,32.14
2018-09-21T12:03:55.532Z,32.15
2018-09-21T12:04:55.476Z,32.18
2018-09-21T12:05:55.345Z,32.15
2018-09-21T12:06:55.257Z,31.90
2018-09-21T12:07:55.174Z,31.87
2018-09-21T12:08:55.083Z,31.65
2018-09-21T12:09:54.997Z,31.56
2018-09-21T12:10:54.914Z,31.27
2018-09-21T12:11:54.811Z,31.27
2018-09-21T12:12:54.724Z,31.17
2018-09-21T12:13:54.636Z,31.29
2018-09-21T12:14:54.550Z,31.17
2018-09-21T12:15:54.521Z,31.07
2018-09-21T12:16:54.380Z,31.06
2018-09-21T12:17:54.277Z,31.21
2018-09-21T12:18:54.191Z,31.28
2018-09-21T12:19:54.103Z,31.31
2018-09-21T12:20:54.016Z,31.54
2018-09-21T12:21:54.035Z,31.55
2018-09-21T12:22:53.831Z,31.43
2018-09-21T12:23:53.743Z,31.54
2018-09-21T12:24:53.655Z,31.69
2018-09-21T12:25:53.569Z,31.69
2018-09-21T12:26:53.482Z,31.73
2018-09-21T12:27:53.394Z,31.64
2018-09-21T12:28:53.296Z,31.64
2018-09-21T12:29:53.209Z,31.52
2018-09-21T12:30:53.121Z,31.54
2018-09-21T12:31:53.035Z,31.58
2018-09-21T12:32:52.949Z,31.49
2018-09-21T12:33:52.849Z,31.44
2018-09-21T12:34:52.761Z,31.55
2018-09-21T12:35:52.681Z,31.40
2018-09-21T12:36:52.587Z,31.33
2018-09-21T12:37:52.505Z,31.34
2018-09-21T12:38:52.414Z,31.31
2018-09-21T12:39:52.314Z,31.28
2018-09-21T12:40:52.227Z,31.27
2018-09-21T12:41:52.141Z,31.21
2018-09-21T12:42:52.054Z,30.94
2018-09-21T12:43:51.969Z,30.99
2018-09-21T12:44:51.868Z,30.94
2018-09-21T12:45:51.780Z,30.87
2018-09-21T12:46:51.694Z,30.92
2018-09-21T12:47:51.606Z,30.94
2018-09-21T12:48:51.520Z,30.90
2018-09-21T12:49:51.432Z,30.88
2018-09-21T12:50:51.345Z,31.03
2018-09-21T12:51:51.246Z,30.94
2018-09-21T12:52:51.158Z,30.84
2018-09-21T12:53:51.076Z,30.94
2018-09-21T12:54:50.976Z,30.97
2018-09-21T12:55:50.885Z,30.96
2018-09-21T12:56:50.800Z,30.88
2018-09-21T12:57:50.787Z,30.77
2018-09-21T12:58:50.659Z,30.61
2018-09-21T12:59:50.527Z,30.57
2018-09-21T13:00:50.438Z,30.54
2018-09-21T13:01:50.353Z,30.47
2018-09-21T13:02:50.265Z,30.47
2018-09-21T13:03:50.178Z,30.35
2018-09-21T13:04:50.079Z,30.39
2018-09-21T13:05:49.991Z,30.35
2018-09-21T13:06:49.904Z,30.43
2018-09-21T13:07:49.819Z,30.34
2018-09-21T13:08:49.719Z,30.35
2018-09-21T13:09:49.631Z,30.32
2018-09-21T13:10:49.544Z,30.27
2018-09-21T13:11:49.457Z,30.16
2018-09-21T13:12:49.369Z,30.13
2018-09-21T13:13:49.271Z,30.09
2018-09-21T13:14:49.184Z,30.02
2018-09-21T13:15:49.096Z,30.02
2018-09-21T13:16:49.011Z,30.00
2018-09-21T13:17:48.924Z,30.06
2018-09-21T13:18:48.822Z,30.02
2018-09-21T13:19:48.736Z,29.97
2018-09-21T13:20:48.649Z,29.97
2018-09-21T13:21:48.553Z,29.88
2018-09-21T13:22:48.463Z,29.88
2018-09-21T13:23:48.378Z,29.86
2018-09-21T13:24:48.290Z,29.66
2018-09-21T13:25:48.237Z,29.69
2018-09-21T13:26:48.155Z,29.75
2018-09-21T13:27:48.018Z,29.71
2018-09-21T13:28:47.930Z,29.59
2018-09-21T13:29:47.830Z,29.53
2018-09-21T13:30:47.743Z,29.41
2018-09-21T13:31:47.655Z,29.36
2018-09-21T13:32:47.569Z,29.45
2018-09-21T13:33:47.470Z,29.35
2018-09-21T13:34:47.383Z,29.31
2018-09-21T13:35:47.295Z,29.29
2018-09-21T13:36:47.198Z,29.23
2018-09-21T13:37:47.108Z,29.17
2018-09-21T13:38:47.022Z,29.22
2018-09-21T13:39:46.934Z,29.16
2018-09-21T13:40:46.834Z,29.26
2018-09-21T13:41:46.750Z,29.26
2018-09-21T13:42:46.662Z,29.29
2018-09-21T13:43:46.562Z,29.14
2018-09-21T13:44:46.476Z,29.13
2018-09-21T13:45:46.388Z,29.04
2018-09-21T13:46:46.290Z,29.07
2018-09-21T13:47:46.203Z,28.91
2018-09-21T13:48:46.115Z,28.96
2018-09-21T13:49:46.029Z,28.85
2018-09-21T13:50:45.929Z,28.85
2018-09-21T13:51:45.898Z,28.82
2018-09-21T13:52:45.755Z,28.79
2018-09-21T13:53:45.656Z,28.79
2018-09-21T13:54:45.569Z,28.86
2018-09-21T13:55:45.482Z,28.82
2018-09-21T13:56:45.383Z,28.75
2018-09-21T13:57:45.294Z,28.85
2018-09-21T13:58:45.208Z,28.70
2018-09-21T13:59:45.109Z,28.84
2018-09-21T14:00:45.022Z,28.82
2018-09-21T14:01:44.940Z,28.88
2018-09-21T14:02:44.836Z,28.82
2018-09-21T14:03:44.748Z,28.79
2018-09-21T14:04:44.662Z,28.85
2018-09-21T14:05:44.568Z,28.85
2018-09-21T14:06:44.475Z,28.82
2018-09-21T14:07:44.389Z,28.89
2018-09-21T14:08:44.290Z,28.89
2018-09-21T14:09:44.202Z,28.75
2018-09-21T14:10:44.116Z,28.76
2018-09-21T14:11:44.016Z,28.76
2018-09-21T14:12:43.927Z,28.66
2018-09-21T14:13:43.842Z,28.64
2018-09-21T14:14:43.742Z,28.62
2018-09-21T14:15:43.655Z,28.64
2018-09-21T14:16:43.570Z,28.66
2018-09-21T14:17:43.469Z,28.64
2018-09-21T14:18:43.382Z,28.64
2018-09-21T14:19:43.296Z,28.64
2018-09-21T14:20:43.196Z,28.63
2018-09-21T14:21:43.110Z,28.62
2018-09-21T14:22:43.023Z,28.60
2018-09-21T14:23:42.922Z,28.49
2018-09-21T14:24:42.835Z,28.45
2018-09-21T14:25:42.749Z,28.44
2018-09-21T14:26:42.650Z,28.48
2018-09-21T14:27:42.562Z,28.41
2018-09-21T14:28:42.463Z,28.47
2018-09-21T14:29:42.377Z,28.38
2018-09-21T14:30:42.290Z,28.39
2018-09-21T14:31:42.192Z,28.42
2018-09-21T14:32:42.104Z,28.39
2018-09-21T14:33:42.017Z,28.42
2018-09-21T14:34:41.916Z,28.37
2018-09-21T14:35:41.887Z,28.38
2018-09-21T14:36:41.742Z,28.35
2018-09-21T14:37:41.643Z,28.26
2018-09-21T14:40:41.369Z,25.17
2018-09-21T14:41:41.283Z,24.57
2018-09-21T14:42:41.183Z,23.48
2018-09-21T14:43:41.097Z,23.00
2018-09-21T14:44:41.011Z,22.39
2018-09-21T14:45:40.913Z,21.80
2018-09-21T14:46:40.823Z,21.62
2018-09-21T14:47:40.723Z,21.45
2018-09-21T14:48:40.644Z,21.22
2018-09-21T14:49:40.538Z,20.70
2018-09-21T14:50:40.499Z,20.19
2018-09-21T14:51:40.352Z,20.09
2018-09-21T14:52:40.265Z,19.89
2018-09-21T14:53:40.176Z,19.79
2018-09-21T14:54:40.079Z,19.51
2018-09-21T14:55:39.981Z,19.37
2018-09-21T14:56:39.892Z,19.15
2018-09-21T14:57:39.792Z,19.00
2018-09-21T14:58:39.704Z,18.92
2018-09-21T14:59:39.605Z,18.71
2018-09-21T15:00:39.521Z,18.73
2018-09-21T15:01:39.419Z,18.73
2018-09-21T15:02:39.331Z,18.63
2018-09-21T15:03:39.233Z,18.56
2018-09-21T15:04:39.132Z,18.44
2018-09-21T15:05:39.048Z,18.31
2018-09-21T15:06:38.948Z,18.16
2018-09-21T15:07:38.847Z,18.07
2018-09-21T15:08:38.761Z,17.98
2018-09-21T15:09:38.661Z,17.89
2018-09-21T15:10:38.562Z,17.76
2018-09-21T15:11:38.476Z,17.67
2018-09-21T15:12:38.376Z,17.67
2018-09-21T15:13:38.276Z,17.65
2018-09-21T15:14:38.189Z,17.65
2018-09-21T15:15:38.089Z,17.60
2018-09-21T15:16:38.046Z,17.59
2018-09-21T15:17:37.893Z,17.65
2018-09-21T15:18:37.804Z,17.45
2018-09-21T15:19:37.705Z,17.16
2018-09-21T15:20:37.605Z,17.04
2018-09-21T15:21:37.507Z,16.79
2018-09-21T15:22:37.418Z,16.72
2018-09-21T15:23:37.320Z,16.58
2018-09-21T15:24:37.221Z,16.51
2018-09-21T15:25:37.119Z,16.47
2018-09-21T15:26:37.025Z,16.29
2018-09-21T15:27:36.934Z,16.33
2018-09-21T15:28:36.835Z,16.36
2018-09-21T15:29:36.739Z,16.39
2018-09-21T15:30:36.637Z,16.29
2018-09-21T15:31:36.537Z,16.24
2018-09-21T15:32:36.449Z,16.17
2018-09-21T15:33:36.349Z,16.15
2018-09-21T15:34:36.251Z,16.16
2018-09-21T15:35:36.150Z,16.10
2018-09-21T15:36:36.052Z,16.04
2018-09-21T15:37:35.953Z,16.01
2018-09-21T15:38:35.867Z,16.00
2018-09-21T15:39:35.766Z,15.97
2018-09-21T15:40:35.666Z,15.95
2018-09-21T15:41:35.568Z,15.95
2018-09-21T15:42:35.469Z,15.84
2018-09-21T15:43:35.409Z,15.82
2018-09-21T15:44:35.270Z,15.88
2018-09-21T15:45:35.181Z,15.76
2018-09-21T15:46:35.083Z,15.73
2018-09-21T15:47:34.987Z,15.65
2018-09-21T15:48:34.884Z,15.64
2018-09-21T15:49:34.784Z,15.58
2018-09-21T15:50:34.684Z,15.52
2018-09-21T15:51:34.585Z,15.49
2018-09-21T15:52:34.486Z,15.44
2018-09-21T15:53:34.385Z,15.31
2018-09-21T15:54:34.288Z,15.22
2018-09-21T15:55:34.189Z,15.10
2018-09-21T15:56:34.101Z,14.99
2018-09-21T15:57:34.003Z,15.07
2018-09-21T15:58:33.941Z,14.94
2018-09-21T15:59:33.806Z,14.88
2018-09-21T16:00:33.702Z,14.81
2018-09-21T16:01:33.603Z,14.70
2018-09-21T16:02:33.505Z,14.59
2018-09-21T16:03:33.405Z,14.58
2018-09-21T16:04:33.306Z,14.43
2018-09-21T16:05:33.209Z,14.47
2018-09-21T16:06:33.107Z,14.43
2018-09-21T16:07:33.007Z,14.30
2018-09-21T16:08:32.907Z,14.41
2018-09-21T16:09:32.810Z,14.30
2018-09-21T16:10:32.709Z,14.25
2018-09-21T16:11:32.609Z,14.20
2018-09-21T16:12:32.509Z,14.15
2018-09-21T16:13:32.410Z,14.12
2018-09-21T16:14:32.311Z,14.07
2018-09-21T16:15:32.211Z,14.03
2018-09-21T16:16:32.112Z,14.00
2018-09-21T16:17:32.012Z,13.99
2018-09-21T16:18:31.913Z,13.93
2018-09-21T16:19:31.814Z,13.89
2018-09-21T16:20:31.714Z,13.87
2018-09-21T16:21:31.615Z,13.89
2018-09-21T16:22:31.515Z,13.81
2018-09-21T16:23:31.416Z,13.95
2018-09-21T16:24:31.316Z,13.92
2018-09-21T16:25:31.216Z,13.87
2018-09-21T16:26:31.117Z,13.86
2018-09-21T16:27:31.021Z,13.87
2018-09-21T16:28:30.918Z,13.85
2018-09-21T16:29:30.819Z,13.83
2018-09-21T16:30:30.707Z,13.83
2018-09-21T16:31:30.607Z,13.71
2018-09-21T16:32:30.508Z,13.77
2018-09-21T16:33:30.408Z,13.74
2018-09-21T16:34:30.308Z,13.74
2018-09-21T16:35:30.209Z,13.77
2018-09-21T16:36:30.129Z,13.67
2018-09-21T16:37:30.011Z,13.70
2018-09-21T16:38:29.914Z,13.74
2018-09-21T16:39:29.811Z,13.78
2018-09-21T16:40:29.711Z,13.72
2018-09-21T16:41:29.612Z,13.83
2018-09-21T16:42:29.512Z,13.78
2018-09-21T16:43:29.413Z,13.74
2018-09-21T16:44:29.316Z,13.75
2018-09-21T16:45:29.214Z,13.68
2018-09-21T16:46:29.103Z,13.71
2018-09-21T16:47:29.003Z,13.71
2018-09-21T16:48:28.905Z,13.63
2018-09-21T16:49:28.806Z,13.67
2018-09-21T16:50:28.705Z,13.67
2018-09-21T16:51:28.606Z,13.70
2018-09-21T16:52:28.535Z,13.74
2018-09-21T16:53:28.407Z,13.72
2018-09-21T16:54:28.308Z,13.78
2018-09-21T16:55:28.208Z,13.77
2018-09-21T16:56:28.109Z,13.72
2018-09-21T16:57:28.062Z,13.72
2018-09-21T16:58:27.910Z,13.78
2018-09-21T16:59:27.810Z,13.79
2018-09-21T17:00:27.711Z,13.81
2018-09-21T17:01:27.611Z,13.74
2018-09-21T17:02:27.500Z,13.74
2018-09-21T17:03:27.438Z,13.86
2018-09-21T17:04:27.406Z,13.87
2018-09-21T17:05:27.201Z,13.86
2018-09-21T17:06:27.101Z,13.93
2018-09-21T17:07:27.003Z,13.85
2018-09-21T17:08:26.904Z,13.86
2018-09-21T17:09:26.808Z,13.70
2018-09-21T17:10:26.703Z,13.79
2018-09-21T17:11:26.674Z,13.78
2018-09-21T17:12:26.505Z,13.74
2018-09-21T17:13:26.405Z,13.81
2018-09-21T17:14:26.308Z,13.86
2018-09-21T17:15:26.206Z,13.78
2018-09-21T17:16:26.107Z,13.89
2018-09-21T17:17:26.007Z,13.87
2018-09-21T17:18:25.914Z,13.86
2018-09-21T17:19:25.808Z,13.92
2018-09-21T17:20:25.698Z,13.89
2018-09-21T17:21:25.598Z,13.87
2018-09-21T17:22:25.499Z,13.87
2018-09-21T17:23:25.400Z,13.96
2018-09-21T17:24:25.300Z,13.83
2018-09-21T17:25:25.201Z,13.95
2018-09-21T17:26:25.101Z,13.93
2018-09-21T17:27:25.005Z,14.04
2018-09-21T17:28:24.901Z,14.05
2018-09-21T17:29:24.803Z,14.12
2018-09-21T17:30:24.703Z,14.10
2018-09-21T17:31:24.605Z,14.12
2018-09-21T17:32:24.505Z,14.12
2018-09-21T17:33:24.404Z,14.10
2018-09-21T17:34:24.305Z,14.11
2018-09-21T17:35:24.205Z,14.05
2018-09-21T17:36:24.107Z,14.04
2018-09-21T17:37:24.007Z,14.12
2018-09-21T17:38:23.908Z,14.10
2018-09-21T17:39:23.809Z,14.15
2018-09-21T17:40:23.709Z,14.14
2018-09-21T17:41:23.609Z,14.11
2018-09-21T17:42:23.498Z,14.17
2018-09-21T17:43:23.397Z,14.18
2018-09-21T17:44:23.299Z,14.23
2018-09-21T17:45:23.198Z,14.20
2018-09-21T17:46:23.113Z,14.30
2018-09-21T17:47:22.999Z,14.32
2018-09-21T17:48:22.900Z,14.35
2018-09-21T17:49:22.814Z,14.30
2018-09-21T17:50:22.714Z,14.22
2018-09-21T17:51:22.604Z,14.30
2018-09-21T17:52:22.502Z,14.26
2018-09-21T17:53:22.403Z,14.22
2018-09-21T17:54:22.304Z,14.30
2018-09-21T17:55:22.203Z,14.29
2018-09-21T17:56:22.104Z,14.32
2018-09-21T17:57:22.004Z,14.29
2018-09-21T17:58:21.905Z,14.41
2018-09-21T17:59:21.810Z,14.43
2018-09-21T18:00:21.706Z,14.37
2018-09-21T18:01:21.607Z,14.37
2018-09-21T18:02:21.510Z,14.29
2018-09-21T18:03:21.408Z,14.36
2018-09-21T18:04:21.309Z,14.32
2018-09-21T18:05:21.209Z,14.40
2018-09-21T18:06:21.102Z,14.32
2018-09-21T18:07:21.064Z,14.29
2018-09-21T18:08:20.899Z,14.37
2018-09-21T18:09:20.804Z,14.33
2018-09-21T18:10:20.700Z,14.45
2018-09-21T18:11:20.601Z,14.33
2018-09-21T18:12:20.513Z,14.40
2018-09-21T18:13:20.413Z,14.45
2018-09-21T18:14:20.302Z,14.36
2018-09-21T18:15:20.203Z,14.43
2018-09-21T18:16:20.114Z,14.35
2018-09-21T18:17:20.007Z,14.44
2018-09-21T18:18:19.905Z,14.36
2018-09-21T18:19:19.805Z,14.33
2018-09-21T18:20:19.707Z,14.36
2018-09-21T18:21:19.607Z,14.43
2018-09-21T18:22:19.507Z,14.43
2018-09-21T18:23:19.407Z,14.47
2018-09-21T18:24:19.309Z,14.43
2018-09-21T18:25:19.211Z,14.48
2018-09-21T18:26:19.109Z,14.50
2018-09-21T18:27:19.012Z,14.43
2018-09-21T18:28:18.910Z,14.44
2018-09-21T18:29:18.811Z,14.48
2018-09-21T18:30:18.703Z,14.40
2018-09-21T18:31:18.606Z,14.36
2018-09-21T18:32:18.501Z,14.40
2018-09-21T18:33:18.407Z,14.37
2018-09-21T18:34:18.301Z,14.28
2018-09-21T18:35:18.201Z,14.29
2018-09-21T18:36:18.102Z,14.40
2018-09-21T18:37:18.061Z,14.37
2018-09-21T18:38:17.903Z,14.40
2018-09-21T18:39:17.805Z,14.33
2018-09-21T18:40:17.705Z,14.40
2018-09-21T18:41:17.608Z,14.32
2018-09-21T18:42:17.506Z,14.30
2018-09-21T18:43:17.406Z,14.30
2018-09-21T18:44:17.310Z,14.30
2018-09-21T18:45:17.207Z,14.29
2018-09-21T18:46:17.107Z,14.26
2018-09-21T18:47:17.009Z,14.32
2018-09-21T18:48:16.908Z,14.37
2018-09-21T18:49:16.808Z,14.29
2018-09-21T18:50:16.755Z,14.33
2018-09-21T18:51:16.610Z,14.35
2018-09-21T18:52:16.510Z,14.40
2018-09-21T18:53:16.411Z,14.32
2018-09-21T18:54:16.312Z,14.41
2018-09-21T18:55:16.212Z,14.40
2018-09-21T18:56:16.113Z,14.35
2018-09-21T18:57:16.013Z,14.40
2018-09-21T18:58:15.915Z,14.40
2018-09-21T18:59:15.824Z,14.40
2018-09-21T19:00:15.715Z,14.40
2018-09-21T19:01:15.631Z,14.41
2018-09-21T19:02:15.510Z,14.40
2018-09-21T19:03:15.405Z,14.37
2018-09-21T19:04:15.305Z,14.40
2018-09-21T19:05:15.206Z,14.37
2018-09-21T19:06:15.108Z,14.43
2018-09-21T19:07:15.008Z,14.40
2018-09-21T19:08:14.908Z,14.30
2018-09-21T19:09:14.809Z,14.28
2018-09-21T19:10:14.709Z,14.18
2018-09-21T19:11:14.662Z,14.30
2018-09-21T19:12:14.510Z,14.36
2018-09-21T19:13:14.411Z,14.25
2018-09-21T19:14:14.312Z,14.36
2018-09-21T19:15:14.218Z,14.28
2018-09-21T19:16:14.115Z,14.30
2018-09-21T19:17:14.014Z,14.29
2018-09-21T19:18:13.914Z,14.29
2018-09-21T19:19:13.821Z,14.29
2018-09-21T19:20:13.715Z,14.33
2018-09-21T19:21:13.615Z,14.30
2018-09-21T19:22:13.516Z,14.36
2018-09-21T19:23:13.417Z,14.29
2018-09-21T19:24:13.317Z,14.41
2018-09-21T19:25:13.218Z,14.33
2018-09-21T19:26:13.107Z,14.33
2018-09-21T19:27:13.018Z,14.33
2018-09-21T19:28:12.918Z,14.37
2018-09-21T19:29:12.822Z,14.33
2018-09-21T19:30:12.709Z,14.29
2018-09-21T19:31:12.608Z,14.36
2018-09-21T19:32:12.513Z,14.26
2018-09-21T19:33:12.408Z,14.26
2018-09-21T19:34:12.309Z,14.29
2018-09-21T19:35:12.229Z,14.26
2018-09-21T19:36:12.110Z,14.20
2018-09-21T19:37:12.012Z,14.25
2018-09-21T19:38:11.913Z,14.20
2018-09-21T19:39:11.813Z,14.32
2018-09-21T19:40:11.712Z,14.23
2018-09-21T19:41:11.613Z,14.15
2018-09-21T19:42:11.514Z,14.20
2018-09-21T19:43:11.415Z,14.23
2018-09-21T19:44:11.318Z,14.28
2018-09-21T19:45:11.308Z,14.20
2018-09-21T19:46:11.116Z,14.23
2018-09-21T19:47:11.016Z,14.22
2018-09-21T19:48:10.928Z,14.25
2018-09-21T19:49:10.808Z,14.25
2018-09-21T19:50:10.707Z,14.22
2018-09-21T19:51:10.608Z,14.20
2018-09-21T19:52:10.508Z,14.26
2018-09-21T19:53:10.433Z,14.29
2018-09-21T19:54:10.309Z,14.28
2018-09-21T19:55:10.210Z,14.30
2018-09-21T19:56:10.112Z,14.25
2018-09-21T19:57:10.011Z,14.26
2018-09-21T19:58:09.917Z,14.20
2018-09-21T19:59:09.812Z,14.18
2018-09-21T20:00:09.711Z,14.25
2018-09-21T20:01:09.613Z,14.22
2018-09-21T20:02:09.514Z,14.15
2018-09-21T20:03:09.418Z,14.22
2018-09-21T20:04:09.315Z,14.14
2018-09-21T20:05:09.215Z,14.15
2018-09-21T20:06:09.116Z,14.08
2018-09-21T20:07:09.016Z,14.11
2018-09-21T20:08:08.917Z,14.18
2018-09-21T20:09:08.805Z,14.12
2018-09-21T20:10:08.705Z,14.15
2018-09-21T20:11:08.669Z,14.07
2018-09-21T20:12:08.505Z,14.10
2018-09-21T20:13:08.406Z,14.08
2018-09-21T20:14:08.309Z,14.05
2018-09-21T20:15:08.207Z,14.08
2018-09-21T20:16:08.111Z,14.05
2018-09-21T20:17:08.008Z,14.08
2018-09-21T20:18:07.909Z,14.08
2018-09-21T20:19:07.809Z,14.08
2018-09-21T20:20:07.709Z,14.05
2018-09-21T20:21:07.615Z,14.03
2018-09-21T20:22:07.545Z,13.99
2018-09-21T20:23:07.425Z,14.00
2018-09-21T20:24:07.325Z,13.95
2018-09-21T20:25:07.221Z,13.93
2018-09-21T20:26:07.113Z,13.97
2018-09-21T20:27:07.015Z,13.89
2018-09-21T20:28:06.915Z,13.85
2018-09-21T20:29:06.805Z,13.89
2018-09-21T20:30:06.704Z,13.83
2018-09-21T20:31:06.624Z,13.87
2018-09-21T20:32:06.506Z,13.81
2018-09-21T20:33:06.409Z,13.72
2018-09-21T20:34:06.310Z,13.72
2018-09-21T20:35:06.210Z,13.79
2018-09-21T20:36:06.108Z,13.67
2018-09-21T20:37:06.012Z,13.81
2018-09-21T20:38:05.916Z,13.72
2018-09-21T20:39:05.810Z,13.68
2018-09-21T20:40:05.710Z,13.72
2018-09-21T20:41:05.610Z,13.63
2018-09-21T20:42:05.510Z,13.65
2018-09-21T20:43:05.412Z,13.60
2018-09-21T20:44:05.315Z,13.59
2018-09-21T20:45:05.213Z,13.50
2018-09-21T20:46:05.113Z,13.53
2018-09-21T20:47:05.002Z,13.57
2018-09-21T20:48:04.903Z,13.53
2018-09-21T20:49:04.802Z,13.54
2018-09-21T20:50:04.705Z,13.50
2018-09-21T20:51:04.603Z,13.53
2018-09-21T20:52:04.503Z,13.50
2018-09-21T20:53:04.405Z,13.47
2018-09-21T20:54:04.305Z,13.57
2018-09-21T20:55:04.204Z,13.53
2018-09-21T20:56:04.105Z,13.46
2018-09-21T20:57:04.006Z,13.52
2018-09-21T20:58:03.899Z,13.52
2018-09-21T20:59:03.799Z,13.44
2018-09-21T21:00:03.697Z,13.44
2018-09-21T21:01:03.597Z,13.27
2018-09-21T21:02:03.497Z,13.39
2018-09-21T21:03:03.398Z,13.23
2018-09-21T21:04:03.297Z,13.27
2018-09-21T21:05:03.199Z,13.28
2018-09-21T21:06:03.099Z,13.27
2018-09-21T21:07:03.004Z,13.28
2018-09-21T21:08:02.901Z,13.23
2018-09-21T21:09:02.800Z,13.20
2018-09-21T21:10:02.689Z,13.25
2018-09-21T21:11:02.593Z,13.18
2018-09-21T21:12:02.493Z,13.13
2018-09-21T21:13:02.406Z,13.15
2018-09-21T21:14:02.290Z,13.18
2018-09-21T21:15:02.191Z,13.12
2018-09-21T21:16:02.096Z,13.16
2018-09-21T21:17:01.995Z,13.09
2018-09-21T21:18:01.893Z,13.20
2018-09-21T21:19:01.794Z,13.15
2018-09-21T21:20:01.694Z,13.20
2018-09-21T21:21:01.583Z,13.25
2018-09-21T21:22:01.484Z,13.23
2018-09-21T21:23:01.384Z,13.30
2018-09-21T21:24:01.285Z,13.27
2018-09-21T21:25:01.188Z,13.13
2018-09-21T21:26:01.086Z,13.20
2018-09-21T21:27:00.986Z,13.23
2018-09-21T21:28:00.887Z,13.08
2018-09-21T21:29:00.788Z,13.11
2018-09-21T21:30:00.679Z,13.08
2018-09-21T21:31:00.576Z,13.03
2018-09-21T21:32:00.475Z,13.03
2018-09-21T21:33:00.376Z,13.00
2018-09-21T21:34:00.276Z,13.05
2018-09-21T21:35:00.181Z,13.08
2018-09-21T21:36:00.078Z,13.12
2018-09-21T21:36:59.979Z,13.16
2018-09-21T21:37:59.878Z,13.09
2018-09-21T21:38:59.778Z,13.19
2018-09-21T21:39:59.679Z,13.11
2018-09-21T21:40:59.580Z,13.13
2018-09-21T21:41:59.531Z,13.11
2018-09-21T21:42:59.369Z,13.05
2018-09-21T21:43:59.270Z,13.00
2018-09-21T21:44:59.171Z,12.98
2018-09-21T21:45:59.070Z,12.95
2018-09-21T21:46:58.972Z,13.00
2018-09-21T21:47:58.866Z,12.91
2018-09-21T21:48:58.759Z,12.93
2018-09-21T21:49:58.661Z,12.93
2018-09-21T21:50:58.578Z,12.94
2018-09-21T21:51:58.463Z,12.95
2018-09-21T21:52:58.375Z,12.91
2018-09-21T21:53:58.263Z,12.86
2018-09-21T21:54:58.164Z,12.98
2018-09-21T21:55:58.063Z,12.94
2018-09-21T21:56:57.954Z,12.94
2018-09-21T21:57:57.854Z,12.98
2018-09-21T21:58:57.753Z,12.91
2018-09-21T21:59:57.653Z,12.97
2018-09-21T22:00:57.555Z,12.94
2018-09-21T22:01:57.456Z,12.94
2018-09-21T22:02:57.355Z,12.90
2018-09-21T22:03:57.257Z,12.80
2018-09-21T22:04:57.145Z,12.78
2018-09-21T22:05:57.047Z,12.75
2018-09-21T22:06:56.947Z,12.73
2018-09-21T22:07:56.845Z,12.70
2018-09-21T22:08:56.745Z,12.72
2018-09-21T22:09:56.646Z,12.73
2018-09-21T22:10:56.547Z,12.72
2018-09-21T22:11:56.447Z,12.73
2018-09-21T22:12:56.347Z,12.72
2018-09-21T22:13:56.237Z,12.75
2018-09-21T22:14:56.137Z,12.64
2018-09-21T22:15:56.038Z,12.65
2018-09-21T22:16:55.942Z,12.61
2018-09-21T22:17:55.839Z,12.65
2018-09-21T22:18:55.739Z,12.60
2018-09-21T22:19:55.640Z,12.46
2018-09-21T22:20:55.528Z,12.54
2018-09-21T22:21:55.429Z,12.60
2018-09-21T22:22:55.341Z,12.53
2018-09-21T22:23:55.229Z,12.46
2018-09-21T22:24:55.129Z,12.40
2018-09-21T22:25:55.030Z,12.43
2018-09-21T22:26:54.937Z,12.43
2018-09-21T22:27:54.821Z,12.35
2018-09-21T22:28:54.720Z,12.35
2018-09-21T22:29:54.621Z,12.36
2018-09-21T22:30:54.522Z,12.29
2018-09-21T22:31:54.422Z,12.29
2018-09-21T22:32:54.322Z,12.22